Time;durP1;ratioP1;P1;durP2;ratioP2;P2;SDS_P1;SDS_P2;PMS_P1;PMS_P2;Temp;Humidity;BMP_temperature;BMP_pressure;BME280_temperature;BME280_humidity;BME280_pressure;Samples;Min_cycle;Max_cycle;Signal;HPM_P1;HPM_P2
2023/12/02 00:01:44;;;;;;;47.15;23.23;;;;;;;;;;4984604;28;20100;-80
2023/12/02 00:04:10;;;;;;;46.55;23.90;;;;;;;;;;5002258;28;20401;-80
2023/12/02 00:06:37;;;;;;;45.80;22.63;;;;;;;;;;4985041;28;20089;-80
2023/12/02 00:09:03;;;;;;;42.35;22.23;;;;;;;;;;4969319;28;20556;-81
2023/12/02 00:11:29;;;;;;;45.15;22.48;;;;;;;;;;5003455;28;20252;-80
2023/12/02 00:13:55;;;;;;;43.83;22.77;;;;;;;;;;4986017;28;20045;-80
2023/12/02 00:16:21;;;;;;;45.35;23.17;;;;;;;;;;4971164;28;20798;-80
2023/12/02 00:18:47;;;;;;;43.05;22.23;;;;;;;;;;4970122;28;20112;-80
2023/12/02 00:21:13;;;;;;;41.28;21.75;;;;;;;;;;4971779;28;20069;-80
2023/12/02 00:23:39;;;;;;;47.80;24.10;;;;;;;;;;4953155;28;20038;-80
2023/12/02 00:26:07;;;;;;;46.53;23.10;;;;;;;;;;4969789;28;20096;-80
2023/12/02 00:28:34;;;;;;;43.67;23.02;;;;;;;;;;4970452;28;20058;-80
2023/12/02 00:31:00;;;;;;;43.35;22.08;;;;;;;;;;4970121;28;20038;-79
2023/12/02 00:33:26;;;;;;;38.30;20.65;;;;;;;;;;4970338;28;20046;-80
2023/12/02 00:35:52;;;;;;;40.85;21.05;;;;;;;;;;4968161;28;20672;-81
2023/12/02 00:38:18;;;;;;;38.58;20.50;;;;;;;;;;4972412;28;20042;-80
2023/12/02 00:40:46;;;;;;;41.22;20.65;;;;;;;;;;4965927;28;20648;-80
2023/12/02 00:43:12;;;;;;;40.08;20.77;;;;;;;;;;5002274;28;20042;-80
2023/12/02 00:45:38;;;;;;;42.00;20.23;;;;;;;;;;4970372;28;20042;-80
2023/12/02 00:48:04;;;;;;;34.33;18.40;;;;;;;;;;4953652;28;20049;-81
2023/12/02 00:50:30;;;;;;;35.20;19.83;;;;;;;;;;4949465;28;20046;-80
2023/12/02 00:52:56;;;;;;;40.22;19.65;;;;;;;;;;4973307;28;20099;-80
2023/12/02 00:55:23;;;;;;;36.65;19.25;;;;;;;;;;4969069;28;20053;-81
2023/12/02 00:57:49;;;;;;;46.20;19.98;;;;;;;;;;4981317;28;20038;-80
2023/12/02 01:00:15;;;;;;;35.42;19.65;;;;;;;;;;5000152;28;20502;-80
2023/12/02 01:02:41;;;;;;;35.88;19.10;;;;;;;;;;4970592;28;20351;-80
2023/12/02 01:05:08;;;;;;;38.13;20.17;;;;;;;;;;4970290;28;20494;-80
2023/12/02 01:07:34;;;;;;;35.67;18.10;;;;;;;;;;4954744;28;20053;-80
2023/12/02 01:10:00;;;;;;;33.67;18.48;;;;;;;;;;4965892;28;20070;-80
2023/12/02 01:12:26;;;;;;;34.38;17.52;;;;;;;;;;5001604;28;20501;-78
2023/12/02 01:14:52;;;;;;;31.98;18.38;;;;;;;;;;4970564;28;20065;-81
2023/12/02 01:17:18;;;;;;;29.98;17.02;;;;;;;;;;4981772;28;20379;-76
2023/12/02 01:19:45;;;;;;;32.13;17.92;;;;;;;;;;4986352;28;20045;-77
2023/12/02 01:22:12;;;;;;;29.92;17.48;;;;;;;;;;5001297;28;20073;-78
2023/12/02 01:24:38;;;;;;;34.40;17.77;;;;;;;;;;4969798;28;20046;-78
2023/12/02 01:27:04;;;;;;;34.30;18.17;;;;;;;;;;5000187;28;20053;-78
2023/12/02 01:29:30;;;;;;;31.00;16.95;;;;;;;;;;4982812;28;20042;-77
2023/12/02 01:31:56;;;;;;;30.88;17.15;;;;;;;;;;4970557;28;20078;-84
2023/12/02 01:34:22;;;;;;;34.08;17.50;;;;;;;;;;4983774;28;20053;-80
2023/12/02 01:36:48;;;;;;;35.13;17.80;;;;;;;;;;4966507;28;20062;-81
2023/12/02 01:39:14;;;;;;;34.00;17.10;;;;;;;;;;4950494;28;20111;-79
2023/12/02 01:41:40;;;;;;;33.15;17.25;;;;;;;;;;4969949;28;20188;-79
2023/12/02 01:44:07;;;;;;;33.80;17.83;;;;;;;;;;4965347;28;20092;-79
2023/12/02 01:46:33;;;;;;;30.80;16.27;;;;;;;;;;5002420;28;20065;-79
2023/12/02 01:49:00;;;;;;;30.48;17.35;;;;;;;;;;4969172;28;20046;-80
2023/12/02 01:51:29;;;;;;;33.83;17.83;;;;;;;;;;4952593;28;20205;-80
2023/12/02 01:53:55;;;;;;;28.73;16.02;;;;;;;;;;4961127;28;20399;-80
2023/12/02 01:56:22;;;;;;;30.20;16.60;;;;;;;;;;4970035;28;20053;-80
2023/12/02 01:58:48;;;;;;;33.65;17.05;;;;;;;;;;4970237;28;20074;-81
2023/12/02 02:01:14;;;;;;;31.55;16.70;;;;;;;;;;4998663;28;20069;-80
2023/12/02 02:03:40;;;;;;;30.27;16.55;;;;;;;;;;4969229;28;20091;-80
2023/12/02 02:06:09;;;;;;;31.92;16.42;;;;;;;;;;4985281;28;20502;-80
2023/12/02 02:08:35;;;;;;;30.48;16.30;;;;;;;;;;4986712;28;20046;-81
2023/12/02 02:11:02;;;;;;;33.45;17.63;;;;;;;;;;4968764;28;20042;-80
2023/12/02 02:13:28;;;;;;;31.92;17.30;;;;;;;;;;4967071;28;20202;-81
2023/12/02 02:15:54;;;;;;;31.88;16.77;;;;;;;;;;4970740;28;20150;-80
2023/12/02 02:18:20;;;;;;;34.53;18.13;;;;;;;;;;5001889;28;20082;-80
2023/12/02 02:20:53;;;;;;;39.80;17.42;;;;;;;;;;4965905;28;20096;-80
2023/12/02 02:23:20;;;;;;;34.13;18.30;;;;;;;;;;4982586;28;20042;-84
2023/12/02 02:25:46;;;;;;;33.78;17.70;;;;;;;;;;4983252;28;20118;-85
2023/12/02 02:28:12;;;;;;;33.55;17.40;;;;;;;;;;4973042;28;20042;-84
2023/12/02 02:30:38;;;;;;;33.65;16.98;;;;;;;;;;4996849;28;20953;-83
2023/12/02 02:33:04;;;;;;;39.58;19.17;;;;;;;;;;4970347;28;20042;-82
2023/12/02 02:35:33;;;;;;;34.10;18.20;;;;;;;;;;5000220;28;20073;-85
2023/12/02 02:37:59;;;;;;;36.38;18.30;;;;;;;;;;5002532;28;20364;-84
2023/12/02 02:40:26;;;;;;;34.63;18.40;;;;;;;;;;4969485;28;20409;-84
2023/12/02 02:42:52;;;;;;;35.05;18.15;;;;;;;;;;4968729;28;20046;-85
2023/12/02 02:45:19;;;;;;;36.00;18.60;;;;;;;;;;4986172;28;20630;-84
2023/12/02 02:47:45;;;;;;;37.50;18.73;;;;;;;;;;4970119;28;20042;-85
2023/12/02 02:50:11;;;;;;;35.63;19.23;;;;;;;;;;4984779;28;20076;-85
2023/12/02 02:52:38;;;;;;;38.25;19.85;;;;;;;;;;4985750;28;20050;-85
2023/12/02 02:55:04;;;;;;;38.85;19.38;;;;;;;;;;5002596;28;20038;-85
2023/12/02 02:57:31;;;;;;;37.92;18.25;;;;;;;;;;4967536;28;20039;-85
2023/12/02 02:59:57;;;;;;;38.63;19.33;;;;;;;;;;4972124;28;20147;-84
2023/12/02 03:02:23;;;;;;;39.40;19.35;;;;;;;;;;4988109;28;20034;-84
2023/12/02 03:04:49;;;;;;;33.50;18.15;;;;;;;;;;5004279;28;20035;-83
2023/12/02 03:07:15;;;;;;;41.15;20.95;;;;;;;;;;4973267;28;20042;-84
2023/12/02 03:09:41;;;;;;;39.45;20.73;;;;;;;;;;4986574;28;20057;-84
2023/12/02 03:12:07;;;;;;;34.55;19.48;;;;;;;;;;4973131;28;20123;-84
2023/12/02 03:14:33;;;;;;;38.10;19.20;;;;;;;;;;5003852;28;20550;-85
2023/12/02 03:17:00;;;;;;;35.35;19.38;;;;;;;;;;4977971;28;20046;-85
2023/12/02 03:19:26;;;;;;;38.22;19.95;;;;;;;;;;4952424;28;20074;-84
2023/12/02 03:21:52;;;;;;;38.30;20.05;;;;;;;;;;5003154;28;20045;-84
2023/12/02 03:24:18;;;;;;;34.15;19.08;;;;;;;;;;4970541;28;20038;-84
2023/12/02 03:26:44;;;;;;;33.75;19.08;;;;;;;;;;4976298;28;20050;-85
2023/12/02 03:29:10;;;;;;;36.40;19.85;;;;;;;;;;4955567;28;20159;-85
2023/12/02 03:31:36;;;;;;;40.65;20.20;;;;;;;;;;4971441;28;20043;-83
2023/12/02 03:34:03;;;;;;;43.30;20.50;;;;;;;;;;4969750;28;20050;-84
2023/12/02 03:36:30;;;;;;;37.78;19.48;;;;;;;;;;4972115;28;20097;-84
2023/12/02 03:38:57;;;;;;;38.38;20.33;;;;;;;;;;4987397;28;20089;-84
2023/12/02 03:41:23;;;;;;;37.92;20.15;;;;;;;;;;4971579;28;20386;-83
2023/12/02 03:43:49;;;;;;;37.20;19.33;;;;;;;;;;5003284;28;20042;-84
2023/12/02 03:46:15;;;;;;;36.05;19.00;;;;;;;;;;4969139;28;20540;-84
2023/12/02 03:48:41;;;;;;;38.72;20.08;;;;;;;;;;5002140;28;20120;-84
2023/12/02 03:51:08;;;;;;;42.03;21.25;;;;;;;;;;4974837;28;20203;-84
2023/12/02 03:53:35;;;;;;;32.22;18.98;;;;;;;;;;4970523;28;20046;-78
2023/12/02 03:56:02;;;;;;;36.25;19.40;;;;;;;;;;4955045;28;20049;-80
2023/12/02 03:58:30;;;;;;;34.50;18.73;;;;;;;;;;4982179;28;20502;-79
2023/12/02 04:00:56;;;;;;;37.97;19.25;;;;;;;;;;4984320;28;20043;-78
2023/12/02 04:03:22;;;;;;;39.92;18.75;;;;;;;;;;4969274;28;20038;-78
2023/12/02 04:05:49;;;;;;;37.45;18.42;;;;;;;;;;4974933;28;20043;-78
2023/12/02 04:08:15;;;;;;;36.63;18.63;;;;;;;;;;4967412;28;20730;-78
2023/12/02 04:10:41;;;;;;;37.28;19.05;;;;;;;;;;4955322;28;20470;-80
2023/12/02 04:13:08;;;;;;;35.38;17.65;;;;;;;;;;4970744;28;20383;-77
2023/12/02 04:15:35;;;;;;;30.58;17.05;;;;;;;;;;4969119;28;20066;-77
2023/12/02 04:18:01;;;;;;;35.80;19.17;;;;;;;;;;4966192;28;20050;-79
2023/12/02 04:20:27;;;;;;;31.98;17.67;;;;;;;;;;4984860;28;20092;-77
2023/12/02 04:22:53;;;;;;;34.70;18.27;;;;;;;;;;5001986;28;20069;-77
2023/12/02 04:25:19;;;;;;;31.67;17.67;;;;;;;;;;5003024;28;20042;-81
2023/12/02 04:27:46;;;;;;;37.10;17.77;;;;;;;;;;4973590;28;20053;-79
2023/12/02 04:30:12;;;;;;;30.70;16.92;;;;;;;;;;5008532;28;20121;-77
2023/12/02 04:32:39;;;;;;;35.85;17.30;;;;;;;;;;5006123;28;20081;-78
2023/12/02 04:35:05;;;;;;;33.47;18.85;;;;;;;;;;5004827;28;20058;-79
2023/12/02 04:37:32;;;;;;;36.25;18.95;;;;;;;;;;4988366;28;20498;-76
2023/12/02 04:39:58;;;;;;;34.25;18.38;;;;;;;;;;5004921;28;20166;-76
2023/12/02 04:42:24;;;;;;;33.55;18.50;;;;;;;;;;5002798;28;20050;-80
2023/12/02 04:44:50;;;;;;;37.72;18.63;;;;;;;;;;4987049;28;20045;-80
2023/12/02 04:47:16;;;;;;;32.25;18.17;;;;;;;;;;5004229;28;20057;-79
2023/12/02 04:49:42;;;;;;;36.05;17.60;;;;;;;;;;5003837;28;20125;-79
2023/12/02 04:52:09;;;;;;;31.70;17.15;;;;;;;;;;4986400;28;20486;-80
2023/12/02 04:54:35;;;;;;;35.10;17.77;;;;;;;;;;4984224;28;20042;-80
2023/12/02 04:57:01;;;;;;;35.53;18.50;;;;;;;;;;4983522;28;20602;-80
2023/12/02 04:59:27;;;;;;;31.55;16.80;;;;;;;;;;4966797;28;20046;-80
2023/12/02 05:01:53;;;;;;;35.83;17.60;;;;;;;;;;4943551;28;20045;-80
2023/12/02 05:04:20;;;;;;;35.72;16.55;;;;;;;;;;4990610;28;20529;-79
2023/12/02 05:06:49;;;;;;;35.63;17.35;;;;;;;;;;4977064;28;20042;-79
2023/12/02 05:09:16;;;;;;;31.95;17.10;;;;;;;;;;4963602;28;20564;-77
2023/12/02 05:11:42;;;;;;;30.05;16.45;;;;;;;;;;4988434;28;20154;-80
2023/12/02 05:14:08;;;;;;;34.67;18.27;;;;;;;;;;4971027;28;20054;-79
2023/12/02 05:16:34;;;;;;;32.50;17.17;;;;;;;;;;4974094;28;20271;-79
2023/12/02 05:19:00;;;;;;;32.85;18.02;;;;;;;;;;4954168;28;20042;-80
2023/12/02 05:21:26;;;;;;;37.08;18.58;;;;;;;;;;4988757;28;20478;-80
2023/12/02 05:23:52;;;;;;;34.85;17.13;;;;;;;;;;4969798;28;20046;-80
2023/12/02 05:26:18;;;;;;;34.63;18.73;;;;;;;;;;4971004;28;20046;-80
2023/12/02 05:28:44;;;;;;;36.13;19.35;;;;;;;;;;4975394;28;20093;-80
2023/12/02 05:31:10;;;;;;;37.45;19.10;;;;;;;;;;4972052;28;20514;-80
2023/12/02 05:33:36;;;;;;;37.53;19.00;;;;;;;;;;4967361;28;20039;-80
2023/12/02 05:36:03;;;;;;;36.08;18.65;;;;;;;;;;4970664;28;20509;-79
2023/12/02 05:38:29;;;;;;;37.13;19.08;;;;;;;;;;4966084;28;20042;-81
2023/12/02 05:40:56;;;;;;;38.45;19.50;;;;;;;;;;4985177;28;20054;-80
2023/12/02 05:43:22;;;;;;;37.58;18.52;;;;;;;;;;4977725;28;20046;-80
2023/12/02 05:45:48;;;;;;;38.55;20.08;;;;;;;;;;4965419;28;20410;-80
2023/12/02 05:48:14;;;;;;;35.13;18.25;;;;;;;;;;4951830;28;23667;-81
2023/12/02 05:50:40;;;;;;;38.90;20.33;;;;;;;;;;4969124;28;20058;-80
2023/12/02 05:53:06;;;;;;;36.63;19.48;;;;;;;;;;4986441;28;20139;-79
2023/12/02 05:55:32;;;;;;;37.05;19.42;;;;;;;;;;4985513;28;20042;-80
2023/12/02 05:57:59;;;;;;;44.28;20.85;;;;;;;;;;4970273;28;20508;-80
2023/12/02 06:00:25;;;;;;;43.13;21.00;;;;;;;;;;4971794;28;20053;-80
2023/12/02 06:02:51;;;;;;;37.72;20.52;;;;;;;;;;4968946;28;20046;-80
2023/12/02 06:05:17;;;;;;;39.72;21.33;;;;;;;;;;4986551;28;20034;-80
2023/12/02 06:07:43;;;;;;;41.30;21.13;;;;;;;;;;4954777;28;20050;-80
2023/12/02 06:10:09;;;;;;;35.90;18.83;;;;;;;;;;4972361;28;20506;-80
2023/12/02 06:12:35;;;;;;;38.15;19.02;;;;;;;;;;4971072;28;20522;-84
2023/12/02 06:15:01;;;;;;;40.60;21.35;;;;;;;;;;4970382;28;20502;-84
2023/12/02 06:17:27;;;;;;;39.97;20.77;;;;;;;;;;5004091;28;20042;-84
2023/12/02 06:19:53;;;;;;;39.28;19.85;;;;;;;;;;4986690;28;20034;-84
2023/12/02 06:22:19;;;;;;;39.40;21.35;;;;;;;;;;4986057;28;20089;-82
2023/12/02 06:24:45;;;;;;;35.53;18.00;;;;;;;;;;4971701;28;20042;-84
2023/12/02 06:27:11;;;;;;;40.47;20.75;;;;;;;;;;4970587;28;20344;-84
2023/12/02 06:29:38;;;;;;;42.75;21.55;;;;;;;;;;4970997;28;20073;-84
2023/12/02 06:32:04;;;;;;;47.33;24.15;;;;;;;;;;4974566;28;20038;-84
2023/12/02 06:34:30;;;;;;;43.95;21.60;;;;;;;;;;5007565;28;20395;-84
2023/12/02 06:36:56;;;;;;;42.75;22.25;;;;;;;;;;5007743;28;20409;-84
2023/12/02 06:39:22;;;;;;;43.08;22.13;;;;;;;;;;4971056;28;20112;-84
2023/12/02 06:41:48;;;;;;;37.78;19.67;;;;;;;;;;4973407;28;20528;-83
2023/12/02 06:44:14;;;;;;;45.55;23.25;;;;;;;;;;5003577;28;20042;-84
2023/12/02 06:46:40;;;;;;;40.90;22.55;;;;;;;;;;4987772;28;20045;-85
2023/12/02 06:49:06;;;;;;;42.83;21.05;;;;;;;;;;5006638;28;20521;-83
2023/12/02 06:51:32;;;;;;;43.22;21.48;;;;;;;;;;4971873;28;20046;-83
2023/12/02 06:53:59;;;;;;;35.65;18.75;;;;;;;;;;4958773;28;20043;-85
2023/12/02 06:56:25;;;;;;;41.20;21.10;;;;;;;;;;5002832;28;20126;-84
2023/12/02 06:58:52;;;;;;;45.70;22.08;;;;;;;;;;4957028;28;20066;-83
2023/12/02 07:01:24;;;;;;;40.28;22.05;;;;;;;;;;4987866;28;20446;-84
2023/12/02 07:03:51;;;;;;;42.17;20.33;;;;;;;;;;4985332;28;20065;-78
2023/12/02 07:06:17;;;;;;;39.83;21.05;;;;;;;;;;4972480;28;20093;-78
2023/12/02 07:08:43;;;;;;;40.92;20.38;;;;;;;;;;4971651;28;20142;-78
2023/12/02 07:11:09;;;;;;;38.75;19.90;;;;;;;;;;4970509;28;20042;-78
2023/12/02 07:13:35;;;;;;;41.10;20.17;;;;;;;;;;4955828;28;20104;-77
2023/12/02 07:16:01;;;;;;;42.08;22.40;;;;;;;;;;4969150;28;20125;-78
2023/12/02 07:18:27;;;;;;;42.90;21.50;;;;;;;;;;4969463;28;20065;-78
2023/12/02 07:20:53;;;;;;;44.70;20.38;;;;;;;;;;4987762;28;20109;-77
2023/12/02 07:23:19;;;;;;;43.00;21.50;;;;;;;;;;5001209;28;20038;-83
2023/12/02 07:25:46;;;;;;;39.05;19.70;;;;;;;;;;4985444;28;20560;-85
2023/12/02 07:28:12;;;;;;;42.90;21.77;;;;;;;;;;4977733;28;20670;-82
2023/12/02 07:30:38;;;;;;;44.15;22.65;;;;;;;;;;4973388;28;20034;-84
2023/12/02 07:33:04;;;;;;;40.70;21.63;;;;;;;;;;4973005;28;20112;-83
2023/12/02 07:35:31;;;;;;;43.90;22.00;;;;;;;;;;4981528;28;20038;-87
2023/12/02 07:37:57;;;;;;;41.40;21.40;;;;;;;;;;4971882;28;20570;-85
2023/12/02 07:40:23;;;;;;;41.70;20.83;;;;;;;;;;4969881;28;20435;-82
2023/12/02 07:42:49;;;;;;;39.03;20.65;;;;;;;;;;4971837;28;20030;-85
2023/12/02 07:45:16;;;;;;;44.95;22.90;;;;;;;;;;4968413;28;20120;-84
2023/12/02 07:47:42;;;;;;;39.72;19.88;;;;;;;;;;4970366;28;20181;-84
2023/12/02 07:50:08;;;;;;;37.97;20.15;;;;;;;;;;4986763;28;20034;-83
2023/12/02 07:52:34;;;;;;;38.00;20.55;;;;;;;;;;4945317;28;20046;-85
2023/12/02 07:55:00;;;;;;;39.80;20.65;;;;;;;;;;4953826;28;20093;-85
2023/12/02 07:57:26;;;;;;;38.47;19.33;;;;;;;;;;4982280;28;20043;-83
2023/12/02 07:59:52;;;;;;;43.15;20.13;;;;;;;;;;4971463;28;20139;-85
2023/12/02 08:02:18;;;;;;;42.83;19.60;;;;;;;;;;4980816;28;20121;-86
2023/12/02 08:04:44;;;;;;;41.28;21.15;;;;;;;;;;4985905;28;20047;-85
2023/12/02 08:07:10;;;;;;;41.55;20.75;;;;;;;;;;4983401;28;20482;-84
2023/12/02 08:09:36;;;;;;;39.30;21.42;;;;;;;;;;4985004;28;20038;-85
2023/12/02 08:12:03;;;;;;;41.83;21.30;;;;;;;;;;4970843;28;20053;-83
2023/12/02 08:14:29;;;;;;;41.38;21.40;;;;;;;;;;4971279;28;20142;-78
2023/12/02 08:16:55;;;;;;;39.65;20.83;;;;;;;;;;4968611;28;20117;-78
2023/12/02 08:19:21;;;;;;;38.58;20.70;;;;;;;;;;4983791;28;20053;-78
2023/12/02 08:21:47;;;;;;;38.13;20.10;;;;;;;;;;4981768;28;20035;-78
2023/12/02 08:24:13;;;;;;;40.70;20.13;;;;;;;;;;4974706;28;20410;-78
2023/12/02 08:26:39;;;;;;;44.30;21.77;;;;;;;;;;4971338;28;20069;-77
2023/12/02 08:29:06;;;;;;;39.45;20.83;;;;;;;;;;4971027;28;20088;-77
2023/12/02 08:31:32;;;;;;;37.10;20.88;;;;;;;;;;5001040;28;20488;-78
2023/12/02 08:33:58;;;;;;;37.42;20.92;;;;;;;;;;4957920;28;20042;-77
2023/12/02 08:36:24;;;;;;;43.90;22.77;;;;;;;;;;4986520;28;20426;-77
2023/12/02 08:38:50;;;;;;;47.22;22.20;;;;;;;;;;4966867;28;20062;-79
2023/12/02 08:41:16;;;;;;;43.88;23.25;;;;;;;;;;4986766;28;20451;-77
2023/12/02 08:43:43;;;;;;;39.72;21.30;;;;;;;;;;4969075;28;20109;-77
2023/12/02 08:46:18;;;;;;;41.00;21.15;;;;;;;;;;4983993;28;20138;-79
2023/12/02 08:48:45;;;;;;;37.80;20.63;;;;;;;;;;4983851;28;20105;-78
2023/12/02 08:51:11;;;;;;;39.90;21.20;;;;;;;;;;4971159;28;20073;-76
2023/12/02 08:53:37;;;;;;;34.47;18.45;;;;;;;;;;4989472;28;20038;-77
2023/12/02 08:56:03;;;;;;;39.40;20.70;;;;;;;;;;4969048;28;20048;-76
2023/12/02 08:58:29;;;;;;;41.17;20.65;;;;;;;;;;4987678;28;20049;-76
2023/12/02 09:00:55;;;;;;;41.28;20.90;;;;;;;;;;4985699;28;20043;-76
2023/12/02 09:03:22;;;;;;;37.60;20.63;;;;;;;;;;4987377;28;20433;-78
2023/12/02 09:05:50;;;;;;;38.65;20.48;;;;;;;;;;4986896;28;20054;-77
2023/12/02 09:08:16;;;;;;;36.55;19.42;;;;;;;;;;4988416;28;20040;-77
2023/12/02 09:10:42;;;;;;;38.55;20.83;;;;;;;;;;4986026;28;20046;-78
2023/12/02 09:13:27;;;;;;;40.53;21.33;;;;;;;;;;4968213;28;20050;-78
2023/12/02 09:15:53;;;;;;;40.83;20.60;;;;;;;;;;4986495;28;20084;-78
2023/12/02 09:18:45;;;;;;;40.05;20.65;;;;;;;;;;4988266;28;20045;-77
2023/12/02 09:21:21;;;;;;;36.17;20.38;;;;;;;;;;4966989;28;20059;-78
2023/12/02 09:23:50;;;;;;;41.90;21.70;;;;;;;;;;4970544;28;20115;-81
2023/12/02 09:26:29;;;;;;;40.85;20.50;;;;;;;;;;4971934;28;20060;-84
2023/12/02 09:28:57;;;;;;;37.20;20.92;;;;;;;;;;4974378;28;20498;-83
2023/12/02 09:31:24;;;;;;;43.92;21.85;;;;;;;;;;4988369;28;20070;-82
2023/12/02 09:33:55;;;;;;;38.42;21.08;;;;;;;;;;4982637;28;20042;-84
2023/12/02 09:36:48;;;;;;;39.50;21.05;;;;;;;;;;4975920;28;20049;-84
2023/12/02 09:39:17;;;;;;;40.03;21.90;;;;;;;;;;4988231;28;20395;-83
2023/12/02 09:41:50;;;;;;;38.45;21.88;;;;;;;;;;5001291;28;20042;-83
2023/12/02 09:44:24;;;;;;;51.67;22.10;;;;;;;;;;4972496;28;20042;-80
2023/12/02 09:46:56;;;;;;;38.88;21.98;;;;;;;;;;4984673;28;20124;-79
2023/12/02 09:49:38;;;;;;;39.85;21.33;;;;;;;;;;4988979;28;20561;-77
2023/12/02 09:52:16;;;;;;;35.85;20.90;;;;;;;;;;4984725;28;20043;-76
2023/12/02 09:55:03;;;;;;;32.47;19.92;;;;;;;;;;4983404;28;20056;-77
2023/12/02 09:57:45;;;;;;;35.33;20.00;;;;;;;;;;4978541;28;20137;-77
2023/12/02 10:00:20;;;;;;;34.65;19.88;;;;;;;;;;4986148;28;20469;-77
2023/12/02 10:03:03;;;;;;;34.72;19.65;;;;;;;;;;4986685;28;20042;-80
2023/12/02 10:05:32;;;;;;;36.20;20.00;;;;;;;;;;4988180;28;20030;-77
2023/12/02 10:08:04;;;;;;;38.50;20.38;;;;;;;;;;4970693;28;20038;-77
2023/12/02 10:10:41;;;;;;;37.20;19.08;;;;;;;;;;4985130;28;20074;-78
2023/12/02 10:13:23;;;;;;;35.28;19.27;;;;;;;;;;4985018;28;20042;-79
2023/12/02 10:15:50;;;;;;;35.75;20.17;;;;;;;;;;4985021;28;20203;-78
2023/12/02 10:18:17;;;;;;;37.47;20.02;;;;;;;;;;4998536;28;20051;-79
2023/12/02 10:20:44;;;;;;;40.92;20.73;;;;;;;;;;4980417;28;20125;-78
2023/12/02 10:23:29;;;;;;;35.42;20.20;;;;;;;;;;4970894;28;20034;-77
2023/12/02 10:26:07;;;;;;;36.13;20.20;;;;;;;;;;4969447;28;20731;-78
2023/12/02 10:28:33;;;;;;;36.05;20.27;;;;;;;;;;4982724;28;20487;-79
2023/12/02 10:31:01;;;;;;;37.40;20.75;;;;;;;;;;4965935;28;20549;-79
2023/12/02 10:33:28;;;;;;;33.80;20.17;;;;;;;;;;4984805;28;20136;-79
2023/12/02 10:35:57;;;;;;;30.13;17.70;;;;;;;;;;4987894;28;20050;-79
2023/12/02 10:38:23;;;;;;;29.67;18.05;;;;;;;;;;4982627;28;20050;-78
2023/12/02 10:40:57;;;;;;;30.30;18.77;;;;;;;;;;4985122;28;20410;-76
2023/12/02 10:43:26;;;;;;;30.50;18.25;;;;;;;;;;4989234;28;20050;-77
2023/12/02 10:45:52;;;;;;;27.77;16.48;;;;;;;;;;4985783;28;20038;-77
2023/12/02 10:48:19;;;;;;;26.17;16.70;;;;;;;;;;4968273;28;20409;-79
2023/12/02 10:50:45;;;;;;;26.42;16.73;;;;;;;;;;4968503;28;20196;-78
2023/12/02 10:53:12;;;;;;;24.02;15.80;;;;;;;;;;4986477;28;20050;-79
2023/12/02 10:55:40;;;;;;;22.30;15.50;;;;;;;;;;4979084;28;20039;-85
2023/12/02 10:58:07;;;;;;;19.52;13.55;;;;;;;;;;4971671;28;20053;-85
2023/12/02 11:00:39;;;;;;;22.73;15.07;;;;;;;;;;4972417;28;20049;-85
2023/12/02 11:03:11;;;;;;;26.17;15.68;;;;;;;;;;4955761;28;20046;-83
2023/12/02 11:05:43;;;;;;;22.98;14.82;;;;;;;;;;4984898;28;20047;-84
2023/12/02 11:08:14;;;;;;;21.67;13.57;;;;;;;;;;4980446;28;20034;-83
2023/12/02 11:10:44;;;;;;;21.58;14.15;;;;;;;;;;4963539;28;20498;-84
2023/12/02 11:13:16;;;;;;;22.77;15.55;;;;;;;;;;4983485;28;20045;-83
2023/12/02 11:15:48;;;;;;;20.30;14.02;;;;;;;;;;4948945;28;20168;-82
2023/12/02 11:18:18;;;;;;;19.13;13.65;;;;;;;;;;4965624;28;20042;-82
2023/12/02 11:20:53;;;;;;;18.85;12.75;;;;;;;;;;4989009;28;20423;-82
2023/12/02 11:23:25;;;;;;;18.55;13.30;;;;;;;;;;4986395;28;20054;-83
2023/12/02 11:26:11;;;;;;;21.02;14.57;;;;;;;;;;4974042;28;20045;-83
2023/12/02 11:28:40;;;;;;;19.25;13.18;;;;;;;;;;5001046;28;20118;-83
2023/12/02 11:31:16;;;;;;;18.83;13.35;;;;;;;;;;4975780;28;20038;-83
2023/12/02 11:33:42;;;;;;;21.75;12.57;;;;;;;;;;4981358;28;20157;-82
2023/12/02 11:36:27;;;;;;;16.83;12.10;;;;;;;;;;4968781;28;20508;-82
2023/12/02 11:39:23;;;;;;;18.15;12.40;;;;;;;;;;4980340;28;20085;-81
2023/12/02 11:41:55;;;;;;;19.83;12.52;;;;;;;;;;4964276;28;20077;-83
2023/12/02 11:44:31;;;;;;;15.70;11.35;;;;;;;;;;4979790;28;20105;-83
2023/12/02 11:47:10;;;;;;;15.40;10.52;;;;;;;;;;4969769;28;20125;-84
2023/12/02 11:49:48;;;;;;;16.52;10.38;;;;;;;;;;4983879;28;20137;-83
2023/12/02 11:52:29;;;;;;;15.27;10.27;;;;;;;;;;4985024;28;20130;-83
2023/12/02 11:55:03;;;;;;;13.32;9.45;;;;;;;;;;4985176;28;20124;-82
2023/12/02 11:57:39;;;;;;;13.13;8.95;;;;;;;;;;4986684;28;20133;-83
2023/12/02 12:00:12;;;;;;;13.52;9.00;;;;;;;;;;4987711;28;20046;-82
2023/12/02 12:02:59;;;;;;;13.20;8.75;;;7.20;99.90;;;;;;5001515;28;20038;-84
2023/12/02 12:05:25;;;;;;;13.80;8.02;;;;;;;;;;4979516;28;20102;-81
2023/12/02 12:08:24;;;;;;;11.00;7.60;;;;;;;;;;4968629;28;20039;-80
2023/12/02 12:10:52;;;;;;;10.15;7.68;;;;;;;;;;4965180;28;20441;-80
2023/12/02 12:13:21;;;;;;;10.10;6.80;;;;;;;;;;5010596;28;20081;-81
2023/12/02 12:15:47;;;;;;;10.68;7.00;;;;;;;;;;5006467;28;20468;-81
2023/12/02 12:18:15;;;;;;;8.43;6.40;;;;;;;;;;4979051;28;20137;-79
2023/12/02 12:20:43;;;;;;;11.82;6.53;;;;;;;;;;4988254;28;20088;-80
2023/12/02 12:23:09;;;;;;;9.85;5.85;;;;;;;;;;4971148;28;20046;-80
2023/12/02 12:25:36;;;;;;;8.68;6.18;;;;;;;;;;4971124;28;20069;-80
2023/12/02 12:28:03;;;;;;;8.82;6.47;;;;;;;;;;4985081;28;20047;-80
2023/12/02 12:30:45;;;;;;;9.18;6.00;;;;;;;;;;5006707;28;20100;-81
2023/12/02 12:33:12;;;;;;;7.93;6.05;;;;;;;;;;4970303;28;20069;-80
2023/12/02 12:35:38;;;;;;;7.50;5.75;;;;;;;;;;4986952;28;20468;-81
2023/12/02 12:38:06;;;;;;;9.48;6.28;;;;;;;;;;4999490;28;20041;-80
2023/12/02 12:40:32;;;;;;;9.45;5.97;;;;;;;;;;4999771;28;20060;-80
2023/12/02 12:43:00;;;;;;;7.82;6.13;;;;;;;;;;4996673;28;20069;-80
2023/12/02 12:45:27;;;;;;;10.43;6.55;;;;;;;;;;4978336;28;20078;-80
2023/12/02 12:47:54;;;;;;;9.02;6.93;;;;;;;;;;4985324;28;20074;-80
2023/12/02 12:50:22;;;;;;;9.70;7.05;;;;;;;;;;4978031;28;20051;-80
2023/12/02 12:52:52;;;;;;;12.35;7.85;;;;;;;;;;4981247;28;20046;-80
2023/12/02 12:55:23;;;;;;;9.07;6.25;;;;;;;;;;4948605;28;20049;-79
2023/12/02 12:58:07;;;;;;;8.13;6.50;;;;;;;;;;5003779;28;20093;-80
2023/12/02 13:00:40;;;;;;;8.45;6.82;;;;;;;;;;4978200;28;20053;-80
2023/12/02 13:03:25;;;;;;;9.50;7.00;;;;;;;;;;4968534;28;20413;-80
2023/12/02 13:06:07;;;;;;;9.45;7.35;;;;;;;;;;4978848;28;20498;-80
2023/12/02 13:08:34;;;;;;;11.20;7.75;;;;;;;;;;4984386;28;20072;-80
2023/12/02 13:11:03;;;;;;;10.18;7.32;;;;;;;;;;4983975;28;20058;-80
2023/12/02 13:13:31;;;;;;;11.48;7.43;;;;;;;;;;4987127;28;20057;-80
2023/12/02 13:15:58;;;;;;;11.75;6.93;;;;;;;;;;4956177;28;20035;-80
2023/12/02 13:18:24;;;;;;;9.85;6.95;;;;;;;;;;4986478;28;20506;-80
2023/12/02 13:20:51;;;;;;;14.40;6.88;;;;;;;;;;4971391;28;20030;-81
2023/12/02 13:23:21;;;;;;;8.93;7.05;;;;;;;;;;4968684;28;20046;-81
2023/12/02 13:25:47;;;;;;;9.23;7.00;;;;;;;;;;4985590;28;20093;-80
2023/12/02 13:28:21;;;;;;;11.38;7.82;;;;;;;;;;4995462;28;20061;-80
2023/12/02 13:30:47;;;;;;;12.15;8.48;;;;;;;;;;4966227;28;20126;-81
2023/12/02 13:33:32;;;;;;;11.85;8.52;;;;;;;;;;4973235;28;20038;-80
2023/12/02 13:36:06;;;;;;;10.40;6.85;;;;;;;;;;4988100;28;20066;-80
2023/12/02 13:38:40;;;;;;;10.75;7.88;;;;;;;;;;4982125;28;20045;-79
2023/12/02 13:41:14;;;;;;;11.50;7.38;;;;;;;;;;4987817;28;20572;-79
2023/12/02 13:43:47;;;;;;;13.98;8.13;;;;;;;;;;4985868;28;20177;-79
2023/12/02 13:46:15;;;;;;;14.85;9.05;;;;;;;;;;4981277;28;20490;-80
2023/12/02 13:48:55;;;;;;;15.80;9.98;;;;;;;;;;4996595;28;20046;-80
2023/12/02 13:51:24;;;;;;;18.95;9.23;;;;;;;;;;4969168;28;20046;-80
2023/12/02 13:54:02;;;;;;;16.20;9.55;;;;;;;;;;4981986;28;20410;-80
2023/12/02 13:56:38;;;;;;;17.02;8.88;;;;;;;;;;4999231;28;20054;-80
2023/12/02 13:59:16;;;;;;;8.95;6.82;;;;;;;;;;5000874;28;20046;-78
2023/12/02 14:01:50;;;;;;;9.88;6.63;;;;;;;;;;4966606;28;20470;-79
2023/12/02 14:04:38;;;;;;;8.07;6.30;;;;;;;;;;4967386;28;20101;-81
2023/12/02 14:07:14;;;;;;;9.63;5.72;;;;;;;;;;4984393;28;20039;-81
2023/12/02 14:09:41;;;;;;;10.20;6.15;;;;;;;;;;5001854;28;20054;-80
2023/12/02 14:12:17;;;;;;;9.00;5.30;;;;;;;;;;4965848;28;20046;-82
2023/12/02 14:15:16;;;;;;;9.20;5.78;;;;;;;;;;4985050;28;20144;-82
2023/12/02 14:17:51;;;;;;;10.98;6.80;;;;;;;;;;4974157;28;20057;-82
2023/12/02 14:20:37;;;;;;;9.10;6.68;;;;;;;;;;4999055;28;20042;-83
2023/12/02 14:23:21;;;;;;;8.48;6.22;;;;;;;;;;4967119;28;20054;-82
2023/12/02 14:26:06;;;;;;;9.25;6.10;;;;;;;;;;4984100;28;20101;-84
2023/12/02 14:28:48;;;;;;;13.15;6.25;;;;;;;;;;4989111;28;20461;-83
2023/12/02 14:31:18;;;;;;;10.30;6.50;;;;;;;;;;4984674;28;20046;-82